Albrook, Panama

1:16 PM EST on April 25, 2015 (GMT -0500)
Villa de las Fuentes 2 | | Change Station
CLOSE
Current Station
Personal Weather Station
Location: Panama, PANAMA
Elevation: 167 ft
Nearby Weather Stations

Elev 167 ft 9.01 °N, 79.54 °W | Updated 14 seconds ago

Scattered Clouds
Scattered Clouds
92.7 °F
Feels Like 102 °F
N
5.6
Wind Variable Wind from WSW
Gusts 7.4 mph

Today
High -- | Low -- °F
--% Chance of Precip.
Yesterday
High -- | Low -- °F
Precip. -- in
6:04 AM 6:28 PM
Waxing Crescent, 48% visible
Pressure 29.86 in
Visibility 5.6 miles
Clouds Few 2000 ft
Scattered Clouds 9000 ft
Heat Index 102 °F
Dew Point 74 °F
Humidity 54%
Rainfall 0.00 in
Snow Depth Not available.
UV 7.0 out of 12
Pollen Not available.
Air Quality Not available.
Flu Activity Not available.
METAR MPMG 251800Z 33012KT 9000 FEW020 SCT090 32/21 Q1011 NOSIG RMK HZ ALQDS

More Conditions Fewer Conditions

Pressure 29.86 in
Visibility 5.6 miles
Clouds Few 2000 ft
Scattered Clouds 9000 ft
Heat Index 102 °F
Dew Point 74 °F
Humidity 54%
Rainfall 0.00 in
Snow Depth Not available.
UV 7.0 out of 12
Pollen Not available.
Air Quality Not available.
Flu Activity Not available.
METAR MPMG 251800Z 33012KT 9000 FEW020 SCT090 32/21 Q1011 NOSIG RMK HZ ALQDS

More Conditions Fewer Conditions

10-Day Weather Forecast

Almanac

Astronomy

Apr. 25, 2015 Rise Set
Actual Time
Civil Twilight
Nautical Twilight
Astronomical Twilight
Moon
Length of Visible Light
Length of Day
Tomorrow will be .
, % of the Moon is Illuminated

Today's Extremes

Country Highs Country Lows

Community

WunderPhotos

Upload Photos

1,816,763 photos uploaded!

WunderBlogs® & News

Nearby

Air Quality

  Air Quality AQ Index Pollutant
Not available.

Snow Depth

Station Depth Elevation

Earthquake Activity

City Distance Mag. Time & Date
Minimum magnitude displayed is 2.5.

Coastal Water Temperatures

Place Temperature

Stations

Nearby Weather Stations

Station Location Temp. Windchill Dew Point Humidity Wind Precip. Elev Updated Type